Time;durP1;ratioP1;P1;durP2;ratioP2;P2;SDS_P1;SDS_P2;PMS_P1;PMS_P2;Temp;Humidity;BMP_temperature;BMP_pressure;BME280_temperature;BME280_humidity;BME280_pressure;Samples;Min_cycle;Max_cycle;Signal;HPM_P1;HPM_P2
2022/04/11 00:02:13;;;;;;;13.52;10.02;;;2.80;99.90;;;;;;5083990;28;20230;-80
2022/04/11 00:04:41;;;;;;;11.23;10.20;;;2.80;99.90;;;;;;5078439;28;20727;-80
2022/04/11 00:07:08;;;;;;;11.38;9.75;;;2.80;99.90;;;;;;5079722;28;20212;-80
2022/04/11 00:09:35;;;;;;;10.75;9.70;;;2.70;99.90;;;;;;5078902;28;20206;-80
2022/04/11 00:12:02;;;;;;;11.38;10.07;;;2.70;99.90;;;;;;5089446;28;20211;-80
2022/04/11 00:14:28;;;;;;;11.23;10.20;;;2.70;99.90;;;;;;5098857;28;20229;-80
2022/04/11 00:16:55;;;;;;;12.85;11.13;;;2.70;99.90;;;;;;5088419;28;20205;-79
2022/04/11 00:19:22;;;;;;;13.60;11.55;;;2.70;99.90;;;;;;5084214;28;20223;-79
2022/04/11 00:21:50;;;;;;;10.50;9.40;;;2.70;99.90;;;;;;5098416;28;20202;-79
2022/04/11 00:24:17;;;;;;;11.50;10.38;;;2.70;99.90;;;;;;5083766;28;20223;-80
2022/04/11 00:26:43;;;;;;;12.25;10.82;;;2.60;99.90;;;;;;5086496;28;20209;-80
2022/04/11 00:29:10;;;;;;;11.10;10.10;;;2.70;99.90;;;;;;5098347;28;20674;-80
2022/04/11 00:31:37;;;;;;;13.07;10.10;;;2.60;99.90;;;;;;5090179;28;20205;-80
2022/04/11 00:34:03;;;;;;;11.55;10.27;;;2.60;99.90;;;;;;5094347;28;20809;-79
2022/04/11 00:36:30;;;;;;;10.82;9.70;;;2.60;99.90;;;;;;5096975;28;20213;-80
2022/04/11 00:38:58;;;;;;;10.20;8.82;;;2.60;99.90;;;;;;5098221;28;20227;-80
2022/04/11 00:41:25;;;;;;;12.40;11.30;;;2.60;99.90;;;;;;5093783;28;20217;-80
2022/04/11 00:43:51;;;;;;;10.15;9.20;;;2.50;99.90;;;;;;5078870;28;20205;-80
2022/04/11 00:46:18;;;;;;;11.05;9.95;;;2.50;99.90;;;;;;5098546;28;20209;-80
2022/04/11 00:48:45;;;;;;;11.85;10.75;;;2.50;99.90;;;;;;5088480;28;20220;-79
2022/04/11 00:51:16;;;;;;;10.18;9.35;;;2.40;99.90;;;;;;5091766;28;20205;-80
2022/04/11 00:53:46;;;;;;;10.55;9.65;;;2.40;99.90;;;;;;5088920;28;20205;-80
2022/04/11 00:56:17;;;;;;;9.70;8.82;;;2.40;99.90;;;;;;5077831;28;20217;-79
2022/04/11 00:58:44;;;;;;;11.80;10.70;;;2.40;99.90;;;;;;5082235;28;20212;-80
2022/04/11 01:01:11;;;;;;;10.68;9.63;;;2.40;99.90;;;;;;5085644;28;20220;-80
2022/04/11 01:03:39;;;;;;;12.48;9.32;;;2.40;99.90;;;;;;5078139;28;20209;-80
2022/04/11 01:06:07;;;;;;;14.68;10.05;;;2.40;99.90;;;;;;5078032;28;20229;-80
2022/04/11 01:08:34;;;;;;;11.15;9.48;;;2.30;99.90;;;;;;5083078;28;20196;-80
2022/04/11 01:11:01;;;;;;;13.15;10.00;;;2.30;99.90;;;;;;5097429;28;20230;-80
2022/04/11 01:13:30;;;;;;;10.52;9.57;;;2.30;99.90;;;;;;5077927;28;20205;-80
2022/04/11 01:15:57;;;;;;;13.75;10.65;;;2.30;99.90;;;;;;5080774;28;20217;-80
2022/04/11 01:18:24;;;;;;;12.90;11.70;;;2.30;99.90;;;;;;5096519;28;20220;-80
2022/04/11 01:20:51;;;;;;;11.05;10.00;;;2.30;99.90;;;;;;5094889;28;20215;-80
2022/04/11 01:23:20;;;;;;;10.82;10.02;;;2.30;99.90;;;;;;5077394;28;20212;-80
2022/04/11 01:25:50;;;;;;;10.65;9.75;;;2.30;99.90;;;;;;5078125;28;20502;-80
2022/04/11 01:28:17;;;;;;;10.02;9.20;;;2.30;99.90;;;;;;5083438;28;20197;-80
2022/04/11 01:30:44;;;;;;;11.38;10.30;;;2.30;99.90;;;;;;5076955;28;20206;-80
2022/04/11 01:33:19;;;;;;;10.70;9.77;;;2.30;99.90;;;;;;5097699;28;20231;-80
2022/04/11 01:35:46;;;;;;;12.43;11.23;;;2.30;99.90;;;;;;5097497;28;20231;-80
2022/04/11 01:38:13;;;;;;;11.15;10.13;;;2.30;99.90;;;;;;5077441;28;20225;-80
2022/04/11 01:40:49;;;;;;;12.70;10.45;;;2.30;99.90;;;;;;5092866;28;20204;-80
2022/04/11 01:43:16;;;;;;;11.48;10.32;;;2.30;99.90;;;;;;5097829;28;20224;-80
2022/04/11 01:45:43;;;;;;;10.02;9.13;;;2.30;99.90;;;;;;5081839;28;20248;-80
2022/04/11 01:48:10;;;;;;;12.18;9.95;;;2.30;99.90;;;;;;5077498;28;20212;-80
2022/04/11 01:50:37;;;;;;;9.70;8.70;;;2.20;99.90;;;;;;5090475;28;20204;-80
2022/04/11 01:53:08;;;;;;;12.15;11.23;;;2.30;99.90;;;;;;5097524;28;20205;-80
2022/04/11 01:55:35;;;;;;;10.70;9.77;;;2.20;99.90;;;;;;5084146;28;20233;-80
2022/04/11 01:58:04;;;;;;;10.05;9.00;;;2.30;99.90;;;;;;5083332;28;20202;-80
2022/04/11 02:00:31;;;;;;;11.43;10.07;;;2.30;99.90;;;;;;5094644;28;20215;-80
2022/04/11 02:02:58;;;;;;;11.20;10.20;;;2.30;99.90;;;;;;5057136;28;20210;-80
2022/04/11 02:05:25;;;;;;;11.52;10.30;;;2.30;99.90;;;;;;5058879;28;20227;-79
2022/04/11 02:07:52;;;;;;;10.60;9.52;;;2.30;99.90;;;;;;5097378;28;20208;-80
2022/04/11 02:10:20;;;;;;;10.98;9.98;;;2.30;99.90;;;;;;5096926;28;20261;-80
2022/04/11 02:12:48;;;;;;;10.70;9.73;;;2.40;99.90;;;;;;5094900;28;20204;-80
2022/04/11 02:15:16;;;;;;;12.38;10.73;;;2.40;99.90;;;;;;5095495;28;20222;-80
2022/04/11 02:17:44;;;;;;;12.75;11.55;;;2.40;99.90;;;;;;5097209;28;20208;-80
2022/04/11 02:20:12;;;;;;;14.25;12.82;;;2.50;99.90;;;;;;5081498;28;20271;-80
2022/04/11 02:22:46;;;;;;;14.65;13.02;;;2.50;99.90;;;;;;5100642;28;20231;-79
2022/04/11 02:25:14;;;;;;;14.40;11.45;;;2.60;99.90;;;;;;5099457;28;20610;-80
2022/04/11 02:27:40;;;;;;;14.27;12.80;;;2.60;99.90;;;;;;5099325;28;20663;-80
2022/04/11 02:30:08;;;;;;;14.32;12.93;;;2.60;99.90;;;;;;5083003;28;20205;-80
2022/04/11 02:32:36;;;;;;;13.63;12.35;;;2.70;99.90;;;;;;5092121;28;20224;-80
2022/04/11 02:35:04;;;;;;;13.93;12.70;;;2.70;99.90;;;;;;5086115;28;20233;-80
2022/04/11 02:37:30;;;;;;;12.75;11.55;;;2.70;99.90;;;;;;5076382;28;20212;-80
2022/04/11 02:39:57;;;;;;;12.82;11.43;;;2.80;99.90;;;;;;5077086;28;20244;-80
2022/04/11 02:42:24;;;;;;;13.77;12.45;;;2.80;99.90;;;;;;5076158;28;20209;-80
2022/04/11 02:44:51;;;;;;;12.90;11.68;;;2.80;99.90;;;;;;5076885;28;20345;-80
2022/04/11 02:47:18;;;;;;;12.73;11.52;;;2.80;99.90;;;;;;5081282;28;20220;-80
2022/04/11 02:49:47;;;;;;;13.90;11.77;;;2.80;99.90;;;;;;5094782;28;20209;-80
2022/04/11 02:52:14;;;;;;;11.48;10.32;;;2.90;99.90;;;;;;5077102;28;20684;-80
2022/04/11 02:54:42;;;;;;;13.00;11.23;;;2.90;99.90;;;;;;5087160;28;20232;-80
2022/04/11 02:57:08;;;;;;;11.38;10.48;;;2.90;99.90;;;;;;5095833;28;20202;-80
2022/04/11 02:59:36;;;;;;;13.25;11.88;;;2.90;99.90;;;;;;5084905;28;20833;-80
2022/04/11 03:02:04;;;;;;;12.70;11.43;;;3.00;99.90;;;;;;5077136;28;20261;-80
2022/04/11 03:04:31;;;;;;;11.98;10.80;;;2.90;99.90;;;;;;5088494;28;20232;-80
2022/04/11 03:06:59;;;;;;;11.35;9.57;;;3.00;99.90;;;;;;5098964;28;20206;-80
2022/04/11 03:09:25;;;;;;;11.68;10.40;;;3.00;99.90;;;;;;5090693;28;20644;-80
2022/04/11 03:11:52;;;;;;;11.45;10.45;;;3.00;99.90;;;;;;5079114;28;20207;-80
2022/04/11 03:14:19;;;;;;;12.57;9.80;;;3.00;99.90;;;;;;5089950;28;20584;-80
2022/04/11 03:16:46;;;;;;;9.88;9.00;;;3.10;99.90;;;;;;5097854;28;20200;-80
2022/04/11 03:19:13;;;;;;;10.90;9.90;;;3.10;99.90;;;;;;5098757;28;20231;-80
2022/04/11 03:21:39;;;;;;;11.35;10.02;;;3.10;99.90;;;;;;5093964;28;20194;-80
2022/04/11 03:24:08;;;;;;;11.80;10.70;;;3.10;99.90;;;;;;5079418;28;20225;-81
2022/04/11 03:26:35;;;;;;;11.90;10.80;;;3.10;99.90;;;;;;5081867;28;20196;-80
2022/04/11 03:29:02;;;;;;;12.27;10.40;;;3.10;99.90;;;;;;5099544;28;20217;-80
2022/04/11 03:31:28;;;;;;;12.90;9.85;;;3.10;99.90;;;;;;5082487;28;20210;-80
2022/04/11 03:33:55;;;;;;;10.20;9.23;;;3.10;99.90;;;;;;5078987;28;20202;-80
2022/04/11 03:36:22;;;;;;;10.95;9.98;;;3.10;99.90;;;;;;5080291;28;20210;-80
2022/04/11 03:38:49;;;;;;;11.20;10.10;;;3.10;99.90;;;;;;5080044;28;20236;-80
2022/04/11 03:41:17;;;;;;;11.88;10.52;;;3.00;99.90;;;;;;5080483;28;20199;-81
2022/04/11 03:43:44;;;;;;;10.88;9.98;;;3.00;99.90;;;;;;5080055;28;20199;-81
2022/04/11 03:46:11;;;;;;;12.00;10.90;;;3.10;99.90;;;;;;5096930;28;20226;-80
2022/04/11 03:48:37;;;;;;;12.75;10.10;;;3.10;99.90;;;;;;5087139;28;20232;-80
2022/04/11 03:51:04;;;;;;;11.85;10.75;;;3.10;99.90;;;;;;5079318;28;20208;-81
2022/04/11 03:53:31;;;;;;;12.70;10.30;;;3.10;99.90;;;;;;5080016;28;20209;-80
2022/04/11 03:55:57;;;;;;;11.52;10.50;;;3.10;99.90;;;;;;5079114;28;20240;-81
2022/04/11 03:58:25;;;;;;;14.02;10.73;;;3.10;99.90;;;;;;5090663;28;20566;-81
2022/04/11 04:00:52;;;;;;;11.07;9.98;;;3.10;99.90;;;;;;5109426;28;20228;-80
2022/04/11 04:03:19;;;;;;;12.07;11.00;;;3.10;99.90;;;;;;5099277;28;20590;-80
2022/04/11 04:05:47;;;;;;;10.45;9.43;;;3.10;99.90;;;;;;5089811;28;20237;-81
2022/04/11 04:08:17;;;;;;;10.50;9.52;;;3.00;99.90;;;;;;5089348;28;20204;-81
2022/04/11 04:10:45;;;;;;;11.07;9.95;;;3.00;99.90;;;;;;5096218;28;20203;-81
2022/04/11 04:13:11;;;;;;;11.13;10.05;;;3.00;99.90;;;;;;5086274;28;20210;-81
2022/04/11 04:15:40;;;;;;;11.30;10.20;;;3.00;99.90;;;;;;5089300;28;20227;-82
2022/04/11 04:18:06;;;;;;;10.77;9.77;;;3.00;99.90;;;;;;5109289;28;20202;-80
2022/04/11 04:20:34;;;;;;;10.65;9.65;;;2.90;99.90;;;;;;5108660;28;20226;-81
2022/04/11 04:23:00;;;;;;;11.55;10.35;;;2.90;99.90;;;;;;5091247;28;20204;-81
2022/04/11 04:25:27;;;;;;;11.75;10.70;;;2.90;99.90;;;;;;5079469;28;20219;-82
2022/04/11 04:27:54;;;;;;;9.82;8.93;;;2.90;99.90;;;;;;5078564;28;20203;-81
2022/04/11 04:30:21;;;;;;;11.00;9.90;;;2.90;99.90;;;;;;5092546;28;20199;-82
2022/04/11 04:32:49;;;;;;;10.70;9.30;;;2.90;99.90;;;;;;5089344;28;20208;-82
2022/04/11 04:35:16;;;;;;;9.98;9.13;;;2.80;99.90;;;;;;5077784;28;20225;-82
2022/04/11 04:37:43;;;;;;;10.88;9.50;;;2.80;99.90;;;;;;5086586;28;20202;-81
2022/04/11 04:40:10;;;;;;;11.13;9.98;;;2.80;99.90;;;;;;5098830;28;20573;-82
2022/04/11 04:42:37;;;;;;;12.68;11.50;;;2.70;99.90;;;;;;5091783;28;20205;-82
2022/04/11 04:45:05;;;;;;;10.00;9.10;;;2.70;99.90;;;;;;5078209;28;20232;-81
2022/04/11 04:47:32;;;;;;;10.90;9.80;;;2.70;99.90;;;;;;5083884;28;20607;-81
2022/04/11 04:50:00;;;;;;;11.75;10.30;;;2.60;99.90;;;;;;5098354;28;20196;-82
2022/04/11 04:52:27;;;;;;;11.40;10.50;;;2.50;99.90;;;;;;5078424;28;20554;-81
2022/04/11 04:54:53;;;;;;;10.75;9.73;;;2.50;99.90;;;;;;5078455;28;20233;-81
2022/04/11 04:57:20;;;;;;;11.00;9.70;;;2.30;99.90;;;;;;5095505;28;20211;-81
2022/04/11 04:59:47;;;;;;;10.88;9.60;;;2.30;99.90;;;;;;5098380;28;20220;-82
2022/04/11 05:02:14;;;;;;;11.18;9.57;;;2.30;99.90;;;;;;5081952;28;20201;-82
2022/04/11 05:04:41;;;;;;;12.48;11.27;;;2.40;99.90;;;;;;5088755;28;20274;-82
2022/04/11 05:07:09;;;;;;;11.30;10.35;;;2.20;99.90;;;;;;5096290;28;20204;-81
2022/04/11 05:09:36;;;;;;;11.00;9.98;;;2.10;99.90;;;;;;5098461;28;20207;-82
2022/04/11 05:12:03;;;;;;;11.52;10.52;;;2.20;99.90;;;;;;5089967;28;20201;-82
2022/04/11 05:14:30;;;;;;;17.00;13.07;;;2.30;99.90;;;;;;5077975;28;20227;-82
2022/04/11 05:16:56;;;;;;;9.63;8.82;;;2.30;99.90;;;;;;5084322;28;20196;-82
2022/04/11 05:19:23;;;;;;;13.45;9.35;;;2.30;99.90;;;;;;5098496;28;20217;-82
2022/04/11 05:21:50;;;;;;;10.80;9.90;;;2.40;99.90;;;;;;5097611;28;20198;-82
2022/04/11 05:24:18;;;;;;;10.45;9.45;;;2.30;99.90;;;;;;5098339;28;20231;-82
2022/04/11 05:26:45;;;;;;;10.63;9.63;;;2.40;99.90;;;;;;5078380;28;20251;-82
2022/04/11 05:29:11;;;;;;;12.02;10.40;;;2.40;99.90;;;;;;5078276;28;20225;-82
2022/04/11 05:31:38;;;;;;;10.43;9.43;;;2.50;99.90;;;;;;5096626;28;20205;-82
2022/04/11 05:34:05;;;;;;;10.40;9.45;;;2.50;99.90;;;;;;5098625;28;20232;-81
2022/04/11 05:36:32;;;;;;;14.57;13.10;;;2.50;99.90;;;;;;5080407;28;20201;-82
2022/04/11 05:38:59;;;;;;;13.88;10.45;;;2.50;99.90;;;;;;5077945;28;20681;-82
2022/04/11 05:41:27;;;;;;;10.90;9.75;;;2.60;99.90;;;;;;5094557;28;20198;-82
2022/04/11 05:43:54;;;;;;;14.63;12.32;;;2.60;99.90;;;;;;5097746;28;20211;-82
2022/04/11 05:46:20;;;;;;;11.85;10.65;;;2.70;99.90;;;;;;5082784;28;20212;-82
2022/04/11 05:48:47;;;;;;;11.02;9.95;;;2.70;99.90;;;;;;5088418;28;20617;-82
2022/04/11 05:51:14;;;;;;;12.90;11.57;;;2.80;99.90;;;;;;5098067;28;20202;-82
2022/04/11 05:53:41;;;;;;;12.00;10.80;;;2.80;99.90;;;;;;5094232;28;20208;-81
2022/04/11 05:56:09;;;;;;;15.73;14.38;;;2.90;99.90;;;;;;5084898;28;20284;-82
2022/04/11 05:58:37;;;;;;;12.00;10.77;;;3.00;99.90;;;;;;5078614;28;20261;-82
2022/04/11 06:01:03;;;;;;;12.88;11.68;;;3.10;99.90;;;;;;5084164;28;20246;-82
2022/04/11 06:03:30;;;;;;;13.50;12.07;;;3.20;99.90;;;;;;5097475;28;20210;-82
2022/04/11 06:05:57;;;;;;;12.63;10.77;;;3.30;99.90;;;;;;5092293;28;20300;-83
2022/04/11 06:08:24;;;;;;;13.60;12.05;;;3.40;99.90;;;;;;5077177;28;20209;-82
2022/04/11 06:10:50;;;;;;;22.10;13.63;;;3.50;99.90;;;;;;5080984;28;20194;-82
2022/04/11 06:13:17;;;;;;;13.88;12.63;;;3.60;99.90;;;;;;5098021;28;20234;-81
2022/04/11 06:15:45;;;;;;;17.85;13.45;;;3.70;99.90;;;;;;5102692;22;20233;-83
2022/04/11 06:18:12;;;;;;;17.13;13.50;;;3.70;99.90;;;;;;5097351;28;20307;-81
2022/04/11 06:20:39;;;;;;;12.93;11.45;;;3.70;99.90;;;;;;5114520;28;20226;-82
2022/04/11 06:23:06;;;;;;;12.90;11.55;;;3.80;99.90;;;;;;5117899;28;20203;-82
2022/04/11 06:25:33;;;;;;;12.43;11.32;;;4.00;99.90;;;;;;5118101;28;20598;-81
2022/04/11 06:27:59;;;;;;;12.18;10.88;;;4.00;99.90;;;;;;5107486;28;20204;-82
2022/04/11 06:30:26;;;;;;;13.15;10.95;;;4.20;99.90;;;;;;5097064;28;20197;-81
2022/04/11 06:32:54;;;;;;;12.32;10.32;;;4.30;99.90;;;;;;5106246;28;20211;-81
2022/04/11 06:35:21;;;;;;;11.25;10.07;;;4.30;99.90;;;;;;5118137;28;20220;-81
2022/04/11 06:37:49;;;;;;;9.93;9.02;;;4.40;99.90;;;;;;5112977;28;20210;-82
2022/04/11 06:40:17;;;;;;;10.00;8.70;;;4.50;99.90;;;;;;5101531;28;20630;-82
2022/04/11 06:42:43;;;;;;;13.50;10.88;;;4.60;99.90;;;;;;5103335;28;20219;-82
2022/04/11 06:45:10;;;;;;;13.45;12.20;;;4.60;99.90;;;;;;5123371;28;20234;-82
2022/04/11 06:47:37;;;;;;;11.52;10.45;;;4.60;99.90;;;;;;5129859;28;20214;-82
2022/04/11 06:50:06;;;;;;;10.25;9.35;;;4.60;99.90;;;;;;5106744;28;20200;-82
2022/04/11 06:52:32;;;;;;;11.82;9.32;;;4.80;99.90;;;;;;5118412;28;20203;-82
2022/04/11 06:54:59;;;;;;;9.63;8.63;;;4.90;99.90;;;;;;5121977;28;20245;-82
2022/04/11 06:57:26;;;;;;;10.52;9.13;;;5.00;99.90;;;;;;5120075;27;20206;-83
2022/04/11 06:59:53;;;;;;;9.98;8.73;;;5.10;99.90;;;;;;5121374;28;20234;-82
2022/04/11 07:02:21;;;;;;;12.32;11.07;;;5.20;99.90;;;;;;5104349;28;20200;-82
2022/04/11 07:04:47;;;;;;;8.85;8.05;;;5.30;99.90;;;;;;5108018;28;20267;-82
2022/04/11 07:07:15;;;;;;;8.68;7.78;;;5.30;99.90;;;;;;5122844;28;20203;-83
2022/04/11 07:09:42;;;;;;;8.30;7.63;;;5.40;99.90;;;;;;5107973;28;20212;-81
2022/04/11 07:12:09;;;;;;;9.63;8.80;;;5.50;99.90;;;;;;5105746;28;20207;-81
2022/04/11 07:14:36;;;;;;;8.73;7.70;;;5.60;99.90;;;;;;5120325;28;20227;-80
2022/04/11 07:17:03;;;;;;;8.88;8.13;;;5.80;99.90;;;;;;5121212;28;20214;-81
2022/04/11 07:19:29;;;;;;;9.38;8.45;;;5.90;99.90;;;;;;5120253;28;20203;-82
2022/04/11 07:21:56;;;;;;;7.85;7.05;;;6.00;99.90;;;;;;5100210;28;20603;-81
2022/04/11 07:24:24;;;;;;;8.02;7.28;;;6.10;99.90;;;;;;5100561;28;20220;-83
2022/04/11 07:26:51;;;;;;;7.30;6.63;;;6.20;99.90;;;;;;5097612;28;20221;-81
2022/04/11 07:29:18;;;;;;;8.30;7.60;;;6.30;99.90;;;;;;5116846;28;20680;-81
2022/04/11 07:31:44;;;;;;;7.40;6.80;;;6.40;99.90;;;;;;5099513;28;20193;-83
2022/04/11 07:34:11;;;;;;;7.75;6.55;;;6.50;99.90;;;;;;5098847;28;20232;-82
2022/04/11 07:36:38;;;;;;;7.07;6.13;;;6.60;99.90;;;;;;5113812;28;20743;-82
2022/04/11 07:39:05;;;;;;;6.70;6.10;;;6.70;99.90;;;;;;5117745;28;20199;-82
2022/04/11 07:41:33;;;;;;;6.60;6.00;;;6.80;99.90;;;;;;5107980;28;20228;-80
2022/04/11 07:44:00;;;;;;;6.07;5.50;;;6.90;99.90;;;;;;5108983;28;20207;-83
2022/04/11 07:46:27;;;;;;;7.05;6.45;;;7.00;99.90;;;;;;5105151;28;20204;-80
2022/04/11 07:48:53;;;;;;;7.43;5.63;;;7.10;99.90;;;;;;5095924;28;20201;-81
2022/04/11 07:51:20;;;;;;;6.78;5.55;;;7.20;99.90;;;;;;5095647;28;20750;-80
2022/04/11 07:57:11;;;;;;;6.90;5.93;;;7.40;99.90;;;;;;5110013;28;20232;-79
2022/04/11 07:59:37;;;;;;;7.22;6.53;;;7.50;99.90;;;;;;5105484;28;20258;-81
2022/04/11 08:02:04;;;;;;;6.05;5.55;;;7.60;99.90;;;;;;5103274;28;20215;-82
2022/04/11 08:04:32;;;;;;;7.53;6.25;;;7.70;99.90;;;;;;5121414;22;20228;-79
2022/04/11 08:06:59;;;;;;;6.90;5.97;;;7.80;99.90;;;;;;5093082;28;20205;-82
2022/04/11 08:09:26;;;;;;;5.85;5.35;;;7.90;99.90;;;;;;5098028;28;20197;-81
2022/04/11 08:11:53;;;;;;;5.07;4.68;;;8.00;99.10;;;;;;5094726;28;20208;-81
2022/04/11 08:14:21;;;;;;;6.55;5.90;;;8.10;98.90;;;;;;5094946;28;20224;-80
2022/04/11 08:16:48;;;;;;;5.20;4.80;;;8.20;99.00;;;;;;5095675;28;20204;-80
2022/04/11 08:19:14;;;;;;;6.32;5.72;;;8.20;99.10;;;;;;5096585;28;20200;-81
2022/04/11 08:21:41;;;;;;;5.68;5.18;;;8.30;98.60;;;;;;5098583;28;20227;-80
2022/04/11 08:24:10;;;;;;;6.20;4.45;;;8.40;98.40;;;;;;5096798;28;20231;-83
2022/04/11 08:26:37;;;;;;;6.10;5.53;;;8.60;98.70;;;;;;5076460;28;20208;-82
2022/04/11 08:29:13;;;;;;;4.47;4.18;;;8.70;97.10;;;;;;5075996;28;20220;-82
2022/04/11 08:31:47;;;;;;;4.88;4.47;;;8.70;96.70;;;;;;5092097;28;20205;-80
2022/04/11 08:34:16;;;;;;;5.97;5.55;;;8.90;96.40;;;;;;5090450;28;20259;-81
2022/04/11 08:36:46;;;;;;;4.60;4.20;;;8.90;96.20;;;;;;5071850;28;20265;-79
2022/04/11 08:39:13;;;;;;;5.80;4.65;;;9.00;96.50;;;;;;5073448;28;20307;-79
2022/04/11 08:41:40;;;;;;;5.25;4.85;;;9.10;96.50;;;;;;5093234;28;20221;-81
2022/04/11 08:44:07;;;;;;;6.70;6.00;;;9.20;96.90;;;;;;5094104;28;20204;-81
2022/04/11 08:46:35;;;;;;;5.32;4.93;;;9.40;95.90;;;;;;5073820;28;20205;-78
2022/04/11 08:49:06;;;;;;;7.47;5.00;;;9.50;95.80;;;;;;5077365;28;20222;-79
2022/04/11 08:51:34;;;;;;;5.03;4.63;;;9.50;95.00;;;;;;5092661;28;20258;-80
2022/04/11 08:54:01;;;;;;;5.20;4.70;;;9.50;94.30;;;;;;5088938;28;20572;-79
2022/04/11 08:56:28;;;;;;;5.47;4.70;;;9.60;95.50;;;;;;5073054;28;20778;-79
2022/04/11 08:58:55;;;;;;;5.15;4.65;;;9.70;95.10;;;;;;5074590;28;20226;-78
2022/04/11 09:01:22;;;;;;;6.03;5.53;;;9.80;95.10;;;;;;5092355;28;20221;-78
2022/04/11 09:03:49;;;;;;;5.75;5.35;;;9.90;95.00;;;;;;5091636;28;20639;-78
2022/04/11 09:06:18;;;;;;;4.88;4.45;;;10.00;93.80;;;;;;5072919;28;20213;-80
2022/04/11 09:08:51;;;;;;;4.93;4.53;;;10.20;94.00;;;;;;5072541;28;20201;-80
2022/04/11 09:11:32;;;;;;;6.78;5.03;;;10.30;93.10;;;;;;5093623;28;20566;-81
2022/04/11 09:14:00;;;;;;;5.60;4.47;;;10.50;92.30;;;;;;5090592;28;20209;-78
2022/04/11 09:16:27;;;;;;;4.95;4.47;;;10.50;93.30;;;;;;5071782;28;20354;-80
2022/04/11 09:18:56;;;;;;;4.25;3.85;;;10.70;93.60;;;;;;5073475;28;20192;-80
2022/04/11 09:21:27;;;;;;;4.15;3.80;;;10.80;92.20;;;;;;5071415;28;20228;-79
2022/04/11 09:24:15;;;;;;;4.28;3.83;;;10.80;89.60;;;;;;5072226;28;20203;-80
2022/04/11 09:26:42;;;;;;;3.70;3.03;;;10.80;88.60;;;;;;5073257;28;20675;-80
2022/04/11 09:29:09;;;;;;;3.85;3.22;;;10.90;88.80;;;;;;5076637;28;20460;-80
2022/04/11 09:31:35;;;;;;;4.90;3.72;;;10.90;87.10;;;;;;5091927;28;20604;-79
2022/04/11 09:34:14;;;;;;;4.30;3.15;;;11.00;87.20;;;;;;5088664;28;20301;-79
2022/04/11 09:36:50;;;;;;;3.63;3.33;;;11.10;86.70;;;;;;5071662;28;20768;-80
2022/04/11 09:39:21;;;;;;;4.15;3.85;;;11.20;88.30;;;;;;5073115;28;20214;-80
2022/04/11 09:41:49;;;;;;;3.73;3.40;;;11.30;85.90;;;;;;5070950;28;20263;-80
2022/04/11 09:44:26;;;;;;;3.40;3.10;;;11.30;88.80;;;;;;5079521;28;20493;-80
2022/04/11 09:46:55;;;;;;;4.50;4.05;;;11.50;86.70;;;;;;5091837;28;20205;-79
2022/04/11 09:49:22;;;;;;;4.90;3.67;;;11.60;87.40;;;;;;5086199;28;20231;-78
2022/04/11 09:52:06;;;;;;;4.90;3.53;;;11.90;86.40;;;;;;5072921;28;20445;-82
2022/04/11 09:54:34;;;;;;;4.17;3.87;;;12.00;85.20;;;;;;5079232;28;20472;-80
2022/04/11 09:57:02;;;;;;;3.97;3.60;;;12.20;81.60;;;;;;5090774;28;20464;-81
2022/04/11 09:59:29;;;;;;;3.27;2.93;;;12.30;84.30;;;;;;5084651;28;20458;-80
2022/04/11 10:01:57;;;;;;;3.20;3.00;;;12.40;82.50;;;;;;5071048;28;20488;-81
2022/04/11 10:04:24;;;;;;;2.37;2.17;;;12.60;84.10;;;;;;5076807;28;21242;-81
2022/04/11 10:06:52;;;;;;;3.53;3.27;;;12.90;81.90;;;;;;5091039;28;20548;-80
2022/04/11 10:09:23;;;;;;;3.37;3.03;;;13.10;79.50;;;;;;5094306;28;20451;-81
2022/04/11 10:11:51;;;;;;;3.00;2.80;;;13.30;78.40;;;;;;5098609;28;20456;-80
2022/04/11 10:14:23;;;;;;;3.63;3.33;;;13.40;77.60;;;;;;5100005;28;20600;-82
2022/04/11 10:34:10;;;;;;;3.30;3.00;;;14.30;75.60;;;;;;5079241;28;20817;-86
2022/04/11 10:36:38;;;;;;;3.57;3.27;;;14.50;75.50;;;;;;5080815;28;20825;-86
2022/04/11 10:39:29;;;;;;;3.77;3.47;;;14.70;74.80;;;;;;5081717;28;20439;-86
2022/04/11 10:42:15;;;;;;;2.93;2.63;;;14.90;70.10;;;;;;5082317;28;20494;-87
2022/04/11 10:44:45;;;;;;;2.93;2.73;;;14.80;71.50;;;;;;5081927;28;20439;-86
2022/04/11 10:47:26;;;;;;;3.47;2.80;;;14.90;72.80;;;;;;5081425;28;20493;-87
2022/04/11 10:50:24;;;;;;;6.30;3.30;;;15.10;72.60;;;;;;5081287;28;20932;-86
2022/04/11 10:53:08;;;;;;;3.70;3.00;;;15.40;72.30;;;;;;5083155;28;20423;-87
2022/04/11 10:55:35;;;;;;;3.53;3.23;;;15.50;67.70;;;;;;5081777;28;20454;-86
2022/04/11 10:58:03;;;;;;;3.00;2.80;;;15.70;67.10;;;;;;5081790;28;20443;-87
2022/04/11 11:00:31;;;;;;;2.87;2.67;;;15.90;70.50;;;;;;5080977;28;20442;-86
2022/04/11 11:03:13;;;;;;;3.27;3.07;;;16.20;66.00;;;;;;5081908;28;20448;-87
2022/04/11 11:05:42;;;;;;;2.60;2.50;;;16.40;65.60;;;;;;5082383;28;20438;-86
2022/04/11 11:08:33;;;;;;;3.47;3.03;;;16.60;62.50;;;;;;5081964;28;20451;-86
2022/04/11 11:11:21;;;;;;;2.67;2.47;;;16.90;60.60;;;;;;5082971;28;20432;-86
2022/04/11 11:13:48;;;;;;;2.57;2.37;;;17.30;61.00;;;;;;5082136;28;20437;-87
2022/04/11 11:16:49;;;;;;;2.77;2.57;;;17.80;60.10;;;;;;5080866;28;20480;-86
2022/04/11 11:19:18;;;;;;;3.10;2.80;;;18.60;61.20;;;;;;5081955;28;20437;-86
2022/04/11 11:22:02;;;;;;;3.30;3.00;;;19.10;58.60;;;;;;5081727;28;21073;-86
2022/04/11 11:24:30;;;;;;;7.47;3.50;;;19.70;57.90;;;;;;5081274;28;20452;-86
2022/04/11 11:27:00;;;;;;;3.00;2.80;;;19.80;54.80;;;;;;5088729;28;20467;-85
2022/04/11 11:29:28;;;;;;;3.00;2.80;;;19.60;53.70;;;;;;5085434;28;20453;-84
2022/04/11 11:31:57;;;;;;;3.43;2.67;;;19.50;54.60;;;;;;5085601;28;20452;-84
2022/04/11 11:34:25;;;;;;;4.30;3.97;;;19.30;53.60;;;;;;5083795;28;20803;-86
2022/04/11 11:36:57;;;;;;;3.23;3.00;;;19.30;54.00;;;;;;5084330;28;20480;-86
2022/04/11 11:39:25;;;;;;;3.83;3.53;;;19.60;53.20;;;;;;5083085;28;20467;-86
2022/04/11 11:41:55;;;;;;;3.17;2.90;;;19.70;53.30;;;;;;5082302;28;20829;-86
2022/04/11 11:44:22;;;;;;;5.03;3.60;;;20.00;52.60;;;;;;5083135;28;20955;-85
2022/04/11 11:46:50;;;;;;;2.67;2.47;;;20.40;50.20;;;;;;5082053;28;20477;-86
2022/04/11 11:49:17;;;;;;;3.27;2.97;;;20.60;51.00;;;;;;5081617;28;20447;-85
2022/04/11 11:51:44;;;;;;;4.23;3.80;;;21.20;49.20;;;;;;5080677;28;20535;-86
2022/04/11 11:54:11;;;;;;;2.83;2.60;;;21.50;49.40;;;;;;5079637;28;20518;-86
2022/04/11 11:56:42;;;;;;;3.07;2.87;;;22.00;48.50;;;;;;5079630;28;20471;-85
2022/04/11 11:59:10;;;;;;;3.57;3.30;;;22.20;48.10;;;;;;5080066;28;20465;-85
2022/04/11 12:01:38;;;;;;;3.03;2.83;;;22.30;46.30;;;;;;5079846;28;20484;-86
2022/04/11 12:04:19;;;;;;;3.70;3.40;;;22.20;46.30;;;;;;5079941;28;20448;-85
2022/04/11 12:06:52;;;;;;;3.53;3.27;;;22.70;46.20;;;;;;5089299;28;20470;-85
2022/04/11 12:09:18;;;;;;;3.10;2.90;;;23.40;45.10;;;;;;5088459;28;20442;-85
2022/04/11 12:11:45;;;;;;;3.83;3.53;;;23.40;45.00;;;;;;5078381;28;20450;-85
2022/04/11 12:14:13;;;;;;;3.43;3.10;;;23.80;44.40;;;;;;5079541;28;20457;-86
2022/04/11 12:16:56;;;;;;;3.30;3.03;;;23.90;42.20;;;;;;5079165;28;20479;-86
2022/04/11 12:19:33;;;;;;;3.20;2.90;;;24.00;41.80;;;;;;5078720;28;20449;-85
2022/04/11 12:22:09;;;;;;;4.60;3.70;;;24.20;42.50;;;;;;5078861;28;20878;-86
2022/04/11 12:24:36;;;;;;;3.27;3.03;;;24.20;41.70;;;;;;5078439;28;20427;-86
2022/04/11 12:27:03;;;;;;;3.00;2.80;;;24.60;42.40;;;;;;5076939;28;20474;-86
2022/04/11 12:29:38;;;;;;;2.73;2.40;;;25.10;41.30;;;;;;5076889;28;20462;-86
2022/04/11 12:32:12;;;;;;;3.10;2.90;;;25.80;39.60;;;;;;5076312;28;20432;-86
2022/04/11 12:34:42;;;;;;;3.43;3.13;;;26.30;38.60;;;;;;5075725;28;20432;-86
2022/04/11 12:37:10;;;;;;;2.70;2.50;;;26.20;39.60;;;;;;5076667;28;20510;-86
2022/04/11 12:39:53;;;;;;;3.50;3.20;;;26.50;38.00;;;;;;5077613;28;20818;-85
2022/04/11 12:42:21;;;;;;;3.30;3.00;;;26.30;36.70;;;;;;5082293;28;20999;-86
2022/04/11 12:44:49;;;;;;;2.60;2.40;;;26.30;35.40;;;;;;5085809;28;20448;-85
2022/04/11 12:47:16;;;;;;;3.73;3.33;;;26.90;37.00;;;;;;5087042;28;20468;-86
2022/04/11 12:49:47;;;;;;;2.97;2.77;;;26.30;34.00;;;;;;5077538;28;20448;-86
2022/04/11 12:52:15;;;;;;;3.87;3.50;;;26.00;35.50;;;;;;5085509;28;20467;-85
2022/04/11 12:54:47;;;;;;;3.47;3.17;;;25.40;35.70;;;;;;5090739;28;20443;-85
2022/04/11 12:57:20;;;;;;;3.40;3.10;;;24.70;34.80;;;;;;5090138;28;20467;-85
2022/04/11 12:59:49;;;;;;;5.00;3.77;;;25.20;36.50;;;;;;5091175;28;20537;-85
2022/04/11 13:02:17;;;;;;;3.10;2.90;;;24.80;36.00;;;;;;5090186;28;20559;-85
2022/04/11 13:04:49;;;;;;;3.20;3.00;;;24.90;36.60;;;;;;5093022;28;20443;-85
2022/04/11 13:07:16;;;;;;;3.37;3.10;;;25.40;36.20;;;;;;5091899;28;20468;-85
2022/04/11 13:09:43;;;;;;;3.60;3.30;;;26.10;36.20;;;;;;5089427;28;20444;-85
2022/04/11 13:12:11;;;;;;;3.20;2.90;;;26.70;35.50;;;;;;5089586;28;20574;-85
2022/04/11 13:14:40;;;;;;;3.43;3.13;;;26.80;35.70;;;;;;5088717;28;20447;-85